Startpagina
METAR-TAF:

METAR-TAF

Vliegvelden :

Calcutta, India

breedte: 22-39N, lengte: 088-27E, hoogte: 4 m

Actueel weer

Dit bericht is 29 minuten geleden gemaakt, om 18:30 UTC
Weinig wind
Temperatuur 26°C
Vochtigheid 84%
Druk 1012 hPa
Zicht: 2800 m
Weinig wolken op 2000 ft
Heiigheid

METAR: VECC 151830Z 00000KT 2800 HZ FEW020 26/23 Q1012 NOSIG

Tijdstip: 00:29 (18:59 UTC)

Verwachting

Dit bericht is 1 uur en het 59 minuten geleden gemaakt, om 17:00 UTC
Verwachting geldig van 15 om 18 UTC tot 16 om 24 UTC
Wind kt uit het noorden
Zicht: 3000 m
Weinig wolken op 2000 ft
Heiigheid
Wijzigt naar
van 15 om 20 UTC tot 15 om 22 UTC
Zicht: 2200 m
nevel
Wijzigt naar
van 16 om 02 UTC tot 16 om 04 UTC
Wind 5 kt uit het westen
Zicht: 3500 m
Heiigheid
Wijzigt naar
van 16 om 16 UTC tot 16 om 18 UTC
Wind kt uit het noorden
Zicht: 2300 m
nevel

TAF: VECC 151700Z 1518/1624 00000KT 3000 HZ FEW020 BECMG 1520/1522 2200 BR BECMG 1602/1604 27005KT 3500 HZ BECMG 1616/1618 00000KT 2300 BR

Waarnemingen en weersverwachtingen van meer dan 4000 vliegvelden (METAR en TAF).

De beschikbare stations zijn de gele en rode punten op de kaart.

Ga met uw muis naar het station om de naam te zien.

Klik dan om waarnemingen en weersverwachtingen te zien.

kaart wijzigen: klik op de groene knoppen met een zwart kruis om in te zoomen, op de groene knop met een streepje om uit te zoomen of op de groene pijlen voor aangrenzende kaarten.


METAR-TAF: